首页
METAR-TAF:

METAR-TAF

机场 :

Hohenfels, 德国

纬度: 49-13N, 经度: 011-50E, 海拔: 442米

当前天气观测

该预报发布于17分钟前的04:23 UTC
风速15节,风向西,有时为27节阵风
温度 3°C
湿度 75%
气压 1021 hPa
能见度10公里或以上
少量云层高于1700英尺
多云层高于2400英尺
阴天层高于3500英尺
小雨

METAR: ETIH 210423Z AUTO 27015G27KT 9999 -RA FEW017 BKN024 OVC035 03/M01 A3016 RMK AO2 RAB0357E06RAB23 CIG 020V026 PRESRR SLP231 $

时间: 05:40 (04:40 UTC)


TAF: 丢失

超过4000个机场的气象观测和天气预报(METAR&TAF报告)。

可查询的气象台以黄色和红色小点在地图上表示。

将鼠标移到小点上方,可查看气象台名称。

然后点击查看天气观测和预报。

如需切换地图:点击带黑十字的绿色按钮放大地图;点击带横线的绿色按钮缩小地图;或者点击绿色箭头查看邻近地区的地图。


METAR-TAF: